CDT,Max TemperatureF,Mean TemperatureF,Min TemperatureF,Max Dew PointF,MeanDew PointF,Min DewpointF,Max Humidity, Mean Humidity, Min Humidity, Max Sea Level PressureIn, Mean Sea Level PressureIn, Min Sea Level PressureIn, Max VisibilityMiles, Mean VisibilityMiles, Min VisibilityMiles, Max Wind SpeedMPH, Mean Wind SpeedMPH, Max Gust SpeedMPH,PrecipitationIn, CloudCover, Events, WindDirDegrees
2013-6-1,69,60,51,61,53,45,100,83,64,29.99,29.72,29.55,10,10,7,22,6,30,0.00,6,Rain,343
2013-6-2,66,57,48,50,43,39,94,62,37,30.11,30.05,29.99,10,10,7,12,7,18,0.00,3,,346
2013-6-3,69,56,44,52,45,39,93,61,37,30.06,30.03,29.94,10,10,10,17,4,18,0.00,3,Rain,110
2013-6-4,62,58,55,59,54,46,100,86,55,30.06,30.02,29.95,10,9,2,18,11,23,0.00,7,Rain-Thunderstorm,121
2013-6-5,64,58,53,57,55,54,100,90,68,30.04,29.99,29.95,10,7,2,12,7,16,0.00,7,Rain-Thunderstorm,67
2013-6-6,59,54,50,54,52,50,100,94,82,30.06,30.03,30.00,10,10,3,9,7,,0.00,8,Rain,20
2013-6-7,64,58,51,54,53,52,100,85,64,30.07,30.01,29.93,10,10,7,5,1,,0.00,7,,61
2013-6-8,68,60,51,59,55,52,100,79,56,29.93,29.90,29.87,10,9,4,12,4,17,0.00,2,Rain,125
2013-6-9,62,60,57,61,59,55,100,96,77,29.88,29.81,29.77,10,7,2,21,12,29,0.00,8,Rain,79
2013-6-10,73,66,59,63,61,59,100,89,69,29.89,29.85,29.82,10,7,0,8,4,,0.00,5,Fog,11
2013-6-11,77,67,57,68,63,57,100,89,65,29.94,29.88,29.82,10,7,0,10,2,18,0.00,1,Fog,13
2013-6-12,73,65,57,63,58,54,100,76,56,29.99,29.88,29.81,10,9,2,17,6,23,0.00,5,Rain-Thunderstorm,10
2013-6-13,78,66,53,59,55,50,94,68,42,30.13,30.08,30.01,10,10,3,8,6,,0.00,1,,24
2013-6-14,78,68,59,66,60,55,88,71,54,30.09,29.98,29.86,10,10,5,20,7,28,0.00,4,Rain,133
2013-6-15,80,71,62,70,61,46,100,71,30,29.92,29.89,29.86,10,10,5,13,5,,0.00,2,Rain-Thunderstorm,300
2013-6-16,86,73,60,66,52,43,100,55,23,29.95,29.91,29.87,10,10,2,18,5,39,0.00,1,Rain-Thunderstorm,280
2013-6-17,80,71,62,59,56,52,83,60,39,30.03,29.95,29.90,10,10,10,13,6,18,0.00,3,,313
2013-6-18,77,65,53,63,56,48,100,74,50,30.11,30.07,30.03,10,10,4,12,6,17,0.00,2,Rain-Thunderstorm,76
2013-6-19,84,72,60,66,60,52,94,66,33,30.05,29.99,29.92,10,10,7,10,6,16,0.00,2,,139
2013-6-20,89,80,71,70,64,61,83,61,40,30.00,29.93,29.83,10,10,7,13,7,22,0.00,2,Thunderstorm,149
2013-6-21,82,72,62,72,66,63,100,85,54,30.05,29.91,29.74,10,9,2,30,10,41,0.00,4,Rain-Thunderstorm,96
2013-6-22,80,72,64,72,67,63,100,90,70,30.00,29.91,29.80,10,10,7,18,7,31,0.00,4,Rain-Thunderstorm,100
2013-6-23,80,73,66,72,67,63,100,81,54,29.90,29.78,29.66,10,9,2,29,9,36,0.00,3,Rain-Thunderstorm,220
2013-6-24,80,71,62,73,68,63,100,87,65,29.92,29.87,29.81,10,10,10,12,2,,0.00,1,,126
2013-6-25,84,75,66,75,71,64,100,84,70,29.83,29.77,29.70,10,10,4,14,7,18,0.00,1,,129
2013-6-26,84,78,73,75,70,63,100,77,48,29.85,29.75,29.68,10,9,5,18,5,26,0.00,1,Thunderstorm,283
2013-6-27,86,78,69,70,59,50,94,57,30,29.87,29.85,29.83,10,10,10,22,7,29,0.00,1,,291
2013-6-28,80,73,66,64,58,55,88,60,45,29.87,29.85,29.82,10,10,7,25,13,36,0.00,3,Rain,313
2013-6-29,80,72,64,63,58,50,94,68,36,30.02,29.91,29.81,10,10,5,18,11,25,0.00,3,Rain-Thunderstorm,359
2013-6-30,80,68,57,61,53,45,94,59,30,30.16,30.11,30.03,10,10,7,10,4,18,0.00,1,,8